Time;durP1;ratioP1;P1;durP2;ratioP2;P2;SDS_P1;SDS_P2;PMS_P1;PMS_P2;Temp;Humidity;BMP_temperature;BMP_pressure;BME280_temperature;BME280_humidity;BME280_pressure;Samples;Min_cycle;Max_cycle;Signal;HPM_P1;HPM_P2
2022/04/14 03:01:32;;;;;;;1.15;0.85;;;20.30;47.50;;;;;;5400332;23;46368;-62
2022/04/14 03:03:58;;;;;;;1.35;0.80;;;20.30;48.10;;;;;;4911370;28;45366;-61
2022/04/14 03:06:24;;;;;;;0.68;0.68;;;20.30;47.40;;;;;;4884875;28;44749;-62
2022/04/14 03:08:49;;;;;;;0.80;0.80;;;20.30;47.50;;;;;;4917884;28;45476;-62
2022/04/14 03:11:15;;;;;;;2.53;0.90;;;20.30;47.50;;;;;;4924109;28;46054;-61
2022/04/14 03:13:42;;;;;;;0.70;0.65;;;20.20;47.40;;;;;;4934006;28;45056;-57
2022/04/14 03:16:08;;;;;;;1.15;0.95;;;20.20;47.50;;;;;;4937905;28;44793;-55
2022/04/14 03:18:33;;;;;;;1.10;0.98;;;20.30;47.50;;;;;;4926347;28;44999;-60
2022/04/14 03:21:00;;;;;;;0.80;0.70;;;20.20;47.50;;;;;;4935194;28;46618;-59
2022/04/14 03:23:25;;;;;;;1.20;0.80;;;20.20;47.50;;;;;;4915919;28;45076;-59
2022/04/14 03:25:52;;;;;;;1.13;1.00;;;20.20;47.50;;;;;;4941189;28;45449;-60
2022/04/14 03:28:17;;;;;;;0.90;0.80;;;20.20;47.50;;;;;;4933432;28;44821;-59
2022/04/14 03:30:43;;;;;;;0.93;0.88;;;20.20;47.50;;;;;;4934469;28;46387;-59
2022/04/14 03:33:09;;;;;;;0.77;0.77;;;20.20;47.50;;;;;;4934314;28;45635;-59
2022/04/14 03:35:34;;;;;;;0.68;0.68;;;20.20;47.50;;;;;;4937911;28;45323;-58
2022/04/14 03:38:00;;;;;;;1.08;0.98;;;20.20;47.50;;;;;;4926882;28;45053;-60
2022/04/14 03:40:25;;;;;;;1.15;0.98;;;20.20;47.50;;;;;;4928679;28;45787;-60
2022/04/14 03:42:51;;;;;;;0.60;0.60;;;20.20;47.50;;;;;;4934075;28;45079;-61
2022/04/14 03:45:16;;;;;;;0.70;0.70;;;20.20;47.50;;;;;;4935557;28;45519;-59
2022/04/14 03:47:42;;;;;;;0.80;0.80;;;20.20;47.50;;;;;;4926492;28;44902;-56
2022/04/14 03:50:08;;;;;;;1.00;0.90;;;20.20;47.50;;;;;;4934858;28;46575;-59
2022/04/14 03:52:33;;;;;;;1.23;0.82;;;20.20;47.50;;;;;;4926962;28;45478;-57
2022/04/14 03:54:59;;;;;;;1.27;0.93;;;20.20;47.50;;;;;;4916739;28;44669;-59
2022/04/14 03:57:25;;;;;;;0.73;0.73;;;20.20;47.50;;;;;;4933400;28;45279;-59
2022/04/14 03:59:50;;;;;;;1.02;0.93;;;20.20;47.50;;;;;;4933510;28;45362;-60
2022/04/14 04:02:16;;;;;;;1.10;0.90;;;20.20;47.60;;;;;;4930303;28;45350;-61
2022/04/14 04:04:42;;;;;;;1.05;0.80;;;20.20;47.60;;;;;;4938146;28;45373;-57
2022/04/14 04:07:08;;;;;;;1.05;0.80;;;20.10;47.50;;;;;;4936930;28;45253;-59
2022/04/14 04:09:33;;;;;;;1.25;1.15;;;20.10;47.60;;;;;;4934138;28;46249;-60
2022/04/14 04:12:00;;;;;;;0.85;0.85;;;20.10;47.60;;;;;;4937965;28;45593;-60
2022/04/14 04:14:25;;;;;;;1.38;0.90;;;20.10;47.60;;;;;;4933885;28;45424;-58
2022/04/14 04:16:51;;;;;;;0.80;0.77;;;20.10;47.60;;;;;;4937341;28;45483;-60
2022/04/14 04:19:16;;;;;;;1.00;0.90;;;20.10;47.60;;;;;;4933545;28;45887;-59
2022/04/14 04:21:42;;;;;;;1.52;1.08;;;20.10;47.50;;;;;;4932789;28;45442;-58
2022/04/14 04:24:08;;;;;;;1.13;0.90;;;20.10;47.50;;;;;;4936359;28;45211;-58
2022/04/14 04:26:33;;;;;;;1.35;1.10;;;20.10;47.50;;;;;;4942375;28;45375;-57
2022/04/14 04:28:59;;;;;;;1.00;0.85;;;20.10;47.50;;;;;;4933222;28;46050;-61
2022/04/14 04:31:24;;;;;;;0.85;0.85;;;20.10;47.60;;;;;;4939859;28;45294;-60
2022/04/14 04:33:51;;;;;;;1.40;1.00;;;20.10;47.60;;;;;;4938051;28;45340;-59
2022/04/14 04:36:20;;;;;;;1.00;0.90;;;20.10;47.60;;;;;;4936579;28;44750;-59
2022/04/14 04:38:46;;;;;;;0.80;0.80;;;20.10;47.60;;;;;;4932619;28;45128;-58
2022/04/14 04:41:11;;;;;;;0.77;0.77;;;20.10;47.60;;;;;;4934808;28;44632;-59
2022/04/14 04:43:37;;;;;;;1.10;1.00;;;20.10;47.60;;;;;;4913011;28;45326;-58
2022/04/14 04:46:03;;;;;;;0.80;0.80;;;20.10;47.60;;;;;;4932813;28;45275;-60
2022/04/14 04:48:28;;;;;;;1.20;0.98;;;20.10;47.70;;;;;;4933261;28;46522;-60
2022/04/14 04:50:54;;;;;;;1.05;0.95;;;20.00;47.60;;;;;;4930789;28;45197;-60
2022/04/14 04:53:19;;;;;;;1.45;0.95;;;20.10;47.70;;;;;;4939620;28;45344;-61
2022/04/14 04:55:45;;;;;;;1.33;1.00;;;20.00;47.60;;;;;;4935975;28;45539;-60
2022/04/14 04:58:10;;;;;;;1.30;1.20;;;20.00;47.60;;;;;;4935691;28;45348;-59
2022/04/14 05:00:36;;;;;;;1.15;1.05;;;20.00;47.60;;;;;;4939467;28;45635;-60
2022/04/14 05:03:10;;;;;;;0.90;0.85;;;20.00;47.60;;;;;;4936078;28;44839;-61
2022/04/14 05:05:40;;;;;;;1.27;0.82;;;20.00;47.60;;;;;;4930084;28;45159;-60
2022/04/14 05:08:07;;;;;;;1.73;0.90;;;20.00;47.60;;;;;;4927597;28;46978;-57
2022/04/14 05:10:33;;;;;;;1.17;1.08;;;20.00;47.60;;;;;;4929451;28;44714;-55
2022/04/14 05:12:59;;;;;;;1.27;1.15;;;20.00;47.60;;;;;;4936661;28;44725;-58
2022/04/14 05:15:24;;;;;;;1.20;0.98;;;20.00;47.60;;;;;;4942667;28;44840;-60
2022/04/14 05:17:50;;;;;;;0.93;0.90;;;20.00;47.60;;;;;;4934715;28;45481;-59
2022/04/14 05:20:16;;;;;;;1.25;1.10;;;20.00;47.60;;;;;;4941402;28;45496;-59
2022/04/14 05:22:41;;;;;;;0.90;0.90;;;20.00;47.60;;;;;;4940950;28;45663;-59
2022/04/14 05:25:07;;;;;;;1.10;1.00;;;20.00;47.60;;;;;;4915973;28;45346;-59
2022/04/14 05:27:33;;;;;;;1.15;0.98;;;20.00;47.50;;;;;;4932882;28;46187;-60
2022/04/14 05:29:59;;;;;;;1.70;1.02;;;20.20;47.30;;;;;;4937379;28;45527;-58
2022/04/14 05:32:24;;;;;;;1.25;0.95;;;20.30;47.10;;;;;;4942525;28;45533;-61
2022/04/14 05:34:50;;;;;;;1.10;1.00;;;20.30;46.90;;;;;;4939014;28;45536;-59
2022/04/14 05:37:15;;;;;;;1.85;0.90;;;20.30;46.90;;;;;;4924346;28;45951;-59
2022/04/14 05:39:41;;;;;;;1.23;1.02;;;20.40;46.90;;;;;;4923804;28;45443;-61
2022/04/14 05:42:06;;;;;;;1.10;1.00;;;20.30;46.90;;;;;;4936125;28;45115;-59
2022/04/14 05:44:32;;;;;;;3.30;1.00;;;20.30;46.90;;;;;;4931955;28;45566;-57
2022/04/14 05:46:57;;;;;;;0.82;0.80;;;20.30;46.90;;;;;;4931929;28;46214;-58
2022/04/14 05:49:23;;;;;;;1.20;1.10;;;20.30;46.90;;;;;;4939719;28;45190;-59
2022/04/14 05:51:48;;;;;;;0.95;0.80;;;20.30;47.00;;;;;;4930288;28;45290;-59
2022/04/14 05:54:14;;;;;;;1.13;1.02;;;20.20;47.10;;;;;;4921218;28;45188;-58
2022/04/14 05:56:40;;;;;;;1.10;1.00;;;20.20;47.10;;;;;;4941347;28;45405;-58
2022/04/14 05:59:06;;;;;;;1.40;1.00;;;20.30;47.00;;;;;;4932015;28;44957;-56
2022/04/14 06:01:32;;;;;;;0.98;0.80;;;20.30;46.90;;;;;;4920069;28;45077;-59
2022/04/14 06:03:57;;;;;;;0.90;0.77;;;20.60;46.60;;;;;;4932027;28;45413;-56
2022/04/14 06:06:23;;;;;;;0.88;0.82;;;20.80;46.10;;;;;;4929469;28;46009;-60
2022/04/14 06:08:48;;;;;;;1.00;1.00;;;20.90;45.80;;;;;;4930708;28;45087;-60
2022/04/14 06:11:14;;;;;;;1.60;1.50;;;20.80;45.80;;;;;;4938723;28;45022;-60
2022/04/14 06:13:40;;;;;;;4.00;2.05;;;20.70;45.90;;;;;;4926899;28;45142;-60
2022/04/14 06:16:05;;;;;;;3.17;2.53;;;20.60;45.90;;;;;;4937897;28;45843;-60
2022/04/14 06:18:31;;;;;;;3.25;2.70;;;20.50;45.90;;;;;;4933671;28;45448;-60
2022/04/14 06:20:56;;;;;;;3.63;2.80;;;20.40;46.00;;;;;;4944732;28;45622;-60
2022/04/14 06:23:22;;;;;;;3.15;2.28;;;20.40;46.10;;;;;;4927026;28;45510;-61
2022/04/14 06:25:50;;;;;;;2.65;2.28;;;20.30;46.00;;;;;;4939491;28;46514;-62
2022/04/14 06:28:19;;;;;;;3.83;2.63;;;20.30;46.00;;;;;;4929425;28;45503;-62
2022/04/14 06:30:50;;;;;;;3.88;2.10;;;20.30;46.10;;;;;;4925201;28;45505;-62
2022/04/14 06:33:16;;;;;;;4.75;2.88;;;20.30;46.20;;;;;;4927732;28;45070;-62
2022/04/14 06:35:42;;;;;;;6.18;2.30;;;20.30;46.10;;;;;;4939489;28;47199;-61
2022/04/14 06:38:08;;;;;;;2.58;2.13;;;20.30;46.10;;;;;;4932666;28;45316;-62
2022/04/14 06:40:34;;;;;;;4.22;2.65;;;20.30;46.10;;;;;;4924155;28;45293;-61
2022/04/14 06:42:59;;;;;;;6.32;2.63;;;20.40;46.10;;;;;;4931259;28;45052;-61
2022/04/14 06:45:25;;;;;;;3.85;2.65;;;20.30;46.00;;;;;;4929216;28;45978;-62
2022/04/14 06:47:51;;;;;;;2.75;2.20;;;20.30;46.00;;;;;;4940062;28;45325;-59
2022/04/14 06:50:16;;;;;;;3.22;2.58;;;20.40;46.00;;;;;;4933350;28;44913;-58
2022/04/14 06:52:42;;;;;;;4.30;2.88;;;20.40;46.00;;;;;;4932508;28;45456;-61
2022/04/14 06:55:09;;;;;;;4.30;2.80;;;20.40;46.00;;;;;;4931121;28;46064;-60
2022/04/14 06:57:35;;;;;;;4.85;2.97;;;20.40;46.00;;;;;;4937315;28;45258;-58
2022/04/14 07:00:01;;;;;;;6.55;2.63;;;20.40;45.90;;;;;;4938839;28;45001;-60
2022/04/14 07:02:26;;;;;;;3.90;2.67;;;20.50;46.00;;;;;;4943200;28;45442;-59
2022/04/14 07:04:52;;;;;;;2.95;2.13;;;20.50;45.90;;;;;;4935431;28;46246;-60
2022/04/14 07:07:17;;;;;;;4.90;2.90;;;20.50;45.90;;;;;;4931990;28;45432;-61
2022/04/14 07:09:44;;;;;;;4.00;2.70;;;20.50;45.90;;;;;;4930197;28;45634;-59
2022/04/14 07:12:10;;;;;;;3.53;2.70;;;20.50;45.90;;;;;;4914323;28;45175;-60
2022/04/14 07:14:36;;;;;;;3.75;2.78;;;20.50;45.90;;;;;;4927167;28;46070;-60
2022/04/14 07:17:01;;;;;;;4.55;2.90;;;20.60;45.90;;;;;;4933964;28;44913;-60
2022/04/14 07:19:27;;;;;;;3.60;2.75;;;20.60;45.80;;;;;;4937449;28;45491;-60
2022/04/14 07:21:53;;;;;;;3.70;2.60;;;20.60;45.70;;;;;;4931733;28;45345;-61
2022/04/14 07:24:18;;;;;;;3.95;2.58;;;20.60;45.80;;;;;;4916047;28;48271;-60
2022/04/14 07:26:44;;;;;;;3.85;3.08;;;20.60;45.80;;;;;;4932835;28;44934;-59
2022/04/14 07:29:10;;;;;;;3.83;2.58;;;20.60;45.70;;;;;;4916535;28;45959;-59
2022/04/14 07:31:36;;;;;;;5.60;3.10;;;20.60;46.30;;;;;;4920916;28;45472;-60
2022/04/14 07:34:02;;;;;;;5.93;2.90;;;20.70;45.70;;;;;;4929006;28;46013;-60
2022/04/14 07:36:28;;;;;;;3.67;2.78;;;20.70;45.70;;;;;;4930372;28;45507;-60
2022/04/14 07:38:54;;;;;;;6.45;2.58;;;20.70;45.60;;;;;;4929842;28;45360;-60
2022/04/14 07:41:19;;;;;;;5.63;2.72;;;20.70;45.70;;;;;;4936844;28;45274;-60
2022/04/14 07:43:45;;;;;;;4.15;2.80;;;20.70;45.80;;;;;;4937205;28;45396;-59
2022/04/14 07:46:10;;;;;;;3.85;2.65;;;20.70;45.70;;;;;;4929804;28;44984;-60
2022/04/14 07:48:36;;;;;;;3.20;2.50;;;20.70;45.70;;;;;;4922926;28;45201;-59
2022/04/14 07:51:02;;;;;;;3.63;2.72;;;20.70;45.70;;;;;;4943658;28;45443;-62
2022/04/14 07:53:28;;;;;;;7.07;3.00;;;20.80;45.70;;;;;;4938503;28;45048;-58
2022/04/14 07:55:54;;;;;;;4.93;2.72;;;20.80;45.70;;;;;;4936875;28;44982;-60
2022/04/14 07:58:20;;;;;;;5.00;2.70;;;20.90;45.70;;;;;;4935559;28;45069;-59
2022/04/14 08:00:46;;;;;;;3.17;2.50;;;20.90;45.60;;;;;;4925613;28;45376;-60
2022/04/14 08:03:12;;;;;;;4.72;2.65;;;20.90;45.70;;;;;;4915794;28;45119;-59
2022/04/14 08:05:42;;;;;;;3.83;2.40;;;20.90;45.70;;;;;;4945920;28;45474;-58
2022/04/14 08:08:10;;;;;;;5.05;3.08;;;20.90;45.70;;;;;;4914979;28;45468;-60
2022/04/14 08:10:35;;;;;;;4.35;3.17;;;20.90;45.70;;;;;;4925711;28;45004;-61
2022/04/14 08:13:01;;;;;;;5.35;3.17;;;21.00;45.70;;;;;;4937171;28;46147;-60
2022/04/14 08:15:27;;;;;;;3.85;2.95;;;21.00;45.70;;;;;;4931806;28;45067;-59
2022/04/14 08:17:53;;;;;;;3.75;2.60;;;21.00;45.80;;;;;;4913720;28;44874;-61
2022/04/14 08:20:19;;;;;;;3.53;2.90;;;21.00;45.80;;;;;;4936518;28;45978;-59
2022/04/14 08:22:52;;;;;;;8.73;2.60;;;21.00;45.70;;;;;;4936480;28;45700;-60
2022/04/14 08:25:25;;;;;;;3.45;2.97;;;21.00;45.70;;;;;;4936025;28;45570;-62
2022/04/14 08:27:51;;;;;;;5.10;2.83;;;21.10;45.70;;;;;;4933963;28;44877;-60
2022/04/14 08:30:18;;;;;;;4.72;2.53;;;21.10;45.70;;;;;;4911443;28;45121;-60
2022/04/14 08:32:44;;;;;;;3.88;2.42;;;21.10;45.70;;;;;;4934672;28;46282;-59
2022/04/14 08:35:11;;;;;;;4.00;2.70;;;21.20;45.80;;;;;;4921370;28;45476;-59
2022/04/14 08:37:38;;;;;;;4.07;2.83;;;21.10;45.70;;;;;;4927707;28;45045;-61
2022/04/14 08:40:08;;;;;;;4.03;2.80;;;21.10;45.70;;;;;;4899667;28;45379;-61
2022/04/14 08:42:39;;;;;;;5.32;3.25;;;21.20;45.80;;;;;;4930099;28;46341;-61
2022/04/14 08:45:12;;;;;;;4.05;3.20;;;21.20;45.80;;;;;;4938575;28;45538;-58
2022/04/14 08:47:42;;;;;;;5.75;2.85;;;21.20;45.70;;;;;;4937869;28;45455;-61
2022/04/14 08:50:09;;;;;;;3.22;2.63;;;21.20;45.80;;;;;;4937405;28;45173;-61
2022/04/14 08:52:36;;;;;;;4.68;2.88;;;21.30;45.80;;;;;;4937281;28;46004;-62
2022/04/14 08:55:04;;;;;;;3.92;2.63;;;21.20;45.80;;;;;;4946593;28;45216;-61
2022/04/14 08:57:30;;;;;;;6.18;2.90;;;21.30;45.80;;;;;;4934040;28;45143;-59
2022/04/14 08:59:55;;;;;;;5.82;2.80;;;21.30;45.80;;;;;;4921680;28;45819;-61
2022/04/14 09:02:21;;;;;;;3.72;2.38;;;21.30;45.70;;;;;;4904081;28;46146;-60
2022/04/14 09:04:49;;;;;;;5.38;3.00;;;21.30;45.70;;;;;;4912985;28;46120;-59
2022/04/14 09:07:14;;;;;;;4.57;2.80;;;21.40;45.70;;;;;;4889580;28;45543;-61
2022/04/14 09:09:40;;;;;;;3.00;2.67;;;21.40;45.70;;;;;;4915226;28;45718;-61
2022/04/14 09:12:07;;;;;;;2.85;2.28;;;21.40;45.70;;;;;;4913069;28;46282;-61
2022/04/14 09:14:37;;;;;;;2.95;2.33;;;21.40;45.60;;;;;;4912718;28;45367;-61
2022/04/14 09:17:03;;;;;;;6.15;3.00;;;21.40;45.60;;;;;;4911523;28;45547;-61
2022/04/14 09:19:30;;;;;;;5.53;2.50;;;21.50;45.60;;;;;;4893333;28;44716;-60
2022/04/14 09:22:00;;;;;;;3.58;2.55;;;21.50;45.60;;;;;;4919075;28;45707;-61
2022/04/14 09:24:47;;;;;;;4.53;2.92;;;21.50;45.50;;;;;;4921458;28;45244;-60
2022/04/14 09:27:24;;;;;;;6.20;2.70;;;21.60;45.50;;;;;;4915745;28;44995;-60
2022/04/14 09:29:50;;;;;;;3.70;2.38;;;21.50;45.50;;;;;;4913048;28;45542;-60
2022/04/14 09:32:31;;;;;;;3.97;2.55;;;21.60;45.60;;;;;;4917793;28;46112;-59
2022/04/14 09:35:02;;;;;;;5.03;3.00;;;21.60;45.50;;;;;;4895210;28;45510;-62
2022/04/14 09:37:28;;;;;;;4.47;3.00;;;21.60;45.50;;;;;;4881390;28;44769;-60
2022/04/14 09:39:55;;;;;;;3.70;2.63;;;21.60;45.40;;;;;;4909700;28;45355;-62
2022/04/14 09:42:24;;;;;;;4.38;3.08;;;21.70;45.40;;;;;;4907993;28;45539;-61
2022/04/14 09:44:53;;;;;;;4.47;2.92;;;21.70;45.40;;;;;;4913396;28;45244;-61
2022/04/14 09:47:26;;;;;;;4.28;2.80;;;21.70;45.30;;;;;;4911917;28;45410;-58
2022/04/14 09:49:51;;;;;;;6.13;2.85;;;21.70;45.30;;;;;;4893671;28;44750;-61
2022/04/14 09:52:17;;;;;;;4.72;3.00;;;21.70;45.30;;;;;;4903775;28;47049;-60
2022/04/14 09:54:44;;;;;;;4.32;2.80;;;21.80;45.30;;;;;;4912001;28;45577;-62
2022/04/14 09:57:10;;;;;;;4.38;3.00;;;21.80;45.20;;;;;;4895912;28;45351;-60
2022/04/14 09:59:37;;;;;;;4.05;2.75;;;21.80;45.20;;;;;;4909791;28;45025;-61
2022/04/14 10:02:16;;;;;;;5.53;2.75;;;21.80;45.20;;;;;;4891458;28;46199;-62
2022/04/14 10:04:48;;;;;;;5.13;2.60;;;21.80;45.20;;;;;;4922608;28;45496;-61
2022/04/14 10:07:17;;;;;;;5.13;3.05;;;21.90;45.20;;;;;;4915894;28;45541;-60
2022/04/14 10:09:45;;;;;;;5.90;2.42;;;21.90;45.20;;;;;;4914041;28;45473;-62
2022/04/14 10:12:19;;;;;;;8.05;2.53;;;21.90;45.20;;;;;;4898720;28;46070;-62
2022/04/14 10:15:04;;;;;;;3.65;2.55;;;21.90;45.70;;;;;;4902175;28;45498;-61
2022/04/14 10:17:32;;;;;;;3.85;2.83;;;21.90;45.70;;;;;;4914997;28;44688;-62
2022/04/14 10:19:57;;;;;;;4.47;2.95;;;21.90;45.10;;;;;;4917587;28;45419;-60
2022/04/14 10:22:23;;;;;;;3.50;2.63;;;21.90;45.10;;;;;;4919247;28;46246;-59
2022/04/14 10:24:49;;;;;;;4.13;2.70;;;22.00;45.10;;;;;;4900454;28;46795;-59
2022/04/14 10:27:16;;;;;;;4.68;2.80;;;22.00;45.00;;;;;;4894434;28;44852;-57
2022/04/14 10:29:42;;;;;;;3.70;2.25;;;22.00;45.00;;;;;;4916723;28;45625;-58
2022/04/14 10:32:08;;;;;;;4.50;3.00;;;22.00;45.00;;;;;;4907298;28;45991;-59
2022/04/14 10:34:34;;;;;;;8.10;3.03;;;22.00;45.00;;;;;;4919124;28;45236;-60
2022/04/14 10:37:01;;;;;;;3.42;2.78;;;22.00;45.00;;;;;;4905732;28;45413;-59
2022/04/14 10:39:26;;;;;;;4.35;2.80;;;22.00;45.00;;;;;;4900455;28;45265;-60
2022/04/14 10:41:52;;;;;;;2.53;2.13;;;22.00;45.00;;;;;;4880835;28;46535;-58
2022/04/14 10:44:21;;;;;;;4.15;2.88;;;22.00;45.10;;;;;;4900961;28;45440;-59
2022/04/14 10:46:50;;;;;;;6.55;2.75;;;22.00;45.10;;;;;;4907505;28;45027;-59
2022/04/14 10:49:17;;;;;;;3.88;2.92;;;22.00;45.20;;;;;;4923900;28;45564;-59
2022/04/14 10:51:43;;;;;;;4.68;2.75;;;22.00;45.10;;;;;;4920930;28;45461;-59
2022/04/14 10:54:10;;;;;;;2.65;2.38;;;22.00;45.20;;;;;;4896593;28;45429;-60
2022/04/14 10:56:44;;;;;;;3.05;2.60;;;22.00;45.20;;;;;;4900675;28;45457;-57
2022/04/14 10:59:18;;;;;;;3.28;2.50;;;22.00;45.20;;;;;;4913004;28;45148;-60
2022/04/14 11:01:52;;;;;;;4.10;2.50;;;22.00;45.20;;;;;;4918140;28;45112;-61
2022/04/14 11:04:35;;;;;;;5.30;3.20;;;22.10;45.20;;;;;;4916892;28;45497;-60
2022/04/14 11:07:22;;;;;;;4.30;3.25;;;22.10;45.00;;;;;;4916692;28;45432;-61
2022/04/14 11:09:49;;;;;;;6.38;3.45;;;22.10;44.50;;;;;;4917092;28;45218;-59
2022/04/14 11:12:19;;;;;;;6.35;3.45;;;22.10;44.70;;;;;;4913623;28;46913;-60
2022/04/14 11:15:01;;;;;;;5.72;3.33;;;22.10;44.60;;;;;;4917382;28;45309;-61
2022/04/14 11:17:37;;;;;;;5.72;3.50;;;22.20;44.40;;;;;;4915988;28;44979;-62
2022/04/14 11:20:12;;;;;;;10.35;3.88;;;22.20;44.20;;;;;;4915529;28;45709;-59
2022/04/14 11:23:06;;;;;;;6.53;3.47;;;22.20;44.10;;;;;;4918450;28;45887;-59
2022/04/14 11:25:47;;;;;;;7.35;4.13;;;22.30;44.00;;;;;;4915276;28;45230;-62
2022/04/14 11:28:33;;;;;;;4.55;3.55;;;22.20;43.90;;;;;;4899058;28;44988;-60
2022/04/14 11:31:00;;;;;;;7.43;3.45;;;22.30;43.70;;;;;;4915603;28;45566;-61
2022/04/14 11:33:31;;;;;;;4.60;3.50;;;22.30;43.90;;;;;;4900452;28;46268;-59
2022/04/14 11:36:25;;;;;;;5.05;3.50;;;22.40;43.80;;;;;;4915617;28;44977;-63
2022/04/14 11:39:03;;;;;;;8.25;3.88;;;22.40;43.50;;;;;;4915194;28;45356;-58
2022/04/14 11:41:38;;;;;;;5.55;3.50;;;22.40;43.60;;;;;;4913560;28;45431;-61
2022/04/14 11:44:04;;;;;;;4.45;3.40;;;22.40;43.70;;;;;;4915360;28;46091;-61
2022/04/14 11:46:30;;;;;;;6.53;3.33;;;22.50;43.50;;;;;;4906909;28;45533;-60
2022/04/14 11:48:57;;;;;;;9.45;3.85;;;22.50;43.50;;;;;;4917178;28;45220;-60
2022/04/14 11:51:23;;;;;;;5.75;3.95;;;22.50;43.40;;;;;;4920329;28;45469;-59
2022/04/14 11:53:48;;;;;;;9.00;3.75;;;22.50;43.30;;;;;;4915638;28;45938;-60
2022/04/14 11:56:18;;;;;;;6.95;3.20;;;22.50;43.30;;;;;;4885033;28;44701;-59
2022/04/14 11:58:44;;;;;;;4.60;3.20;;;22.60;43.20;;;;;;4923011;28;45578;-60
2022/04/14 12:01:09;;;;;;;7.72;3.78;;;22.60;43.20;;;;;;4897528;28;45565;-61
2022/04/14 12:03:35;;;;;;;6.18;3.42;;;22.60;43.20;;;;;;4890702;28;45042;-61
2022/04/14 12:06:05;;;;;;;6.80;3.35;;;22.70;43.10;;;;;;4893919;28;45291;-58
2022/04/14 12:08:31;;;;;;;3.90;3.25;;;22.70;43.10;;;;;;4902118;28;45512;-62
2022/04/14 12:11:02;;;;;;;5.20;3.35;;;22.70;43.20;;;;;;4909876;28;45695;-59
2022/04/14 12:13:27;;;;;;;5.63;3.67;;;22.70;43.10;;;;;;4915446;28;44995;-62
2022/04/14 12:16:06;;;;;;;7.13;3.95;;;22.70;43.10;;;;;;4912931;28;44913;-60
2022/04/14 12:18:32;;;;;;;5.63;3.35;;;22.80;43.20;;;;;;4917458;28;45269;-60
2022/04/14 12:20:57;;;;;;;7.20;4.40;;;22.70;43.20;;;;;;4920701;28;45585;-61
2022/04/14 12:23:23;;;;;;;4.68;3.75;;;22.80;43.40;;;;;;4913126;28;45613;-60
2022/04/14 12:25:49;;;;;;;8.63;3.70;;;22.80;43.30;;;;;;4925580;28;45300;-61
2022/04/14 12:28:14;;;;;;;5.93;4.18;;;22.80;43.20;;;;;;4895981;28;44691;-59
2022/04/14 12:30:42;;;;;;;4.25;3.35;;;22.90;43.30;;;;;;4919682;28;45368;-59
2022/04/14 12:33:08;;;;;;;7.50;3.50;;;22.90;43.30;;;;;;4915494;28;45228;-59
2022/04/14 12:35:38;;;;;;;4.07;3.53;;;22.90;43.30;;;;;;4917705;28;44686;-61
2022/04/14 12:38:30;;;;;;;6.88;3.55;;;22.90;43.30;;;;;;4911644;28;45248;-62
2022/04/14 12:40:57;;;;;;;8.60;4.30;;;22.90;42.80;;;;;;4895373;28;44804;-56
2022/04/14 12:43:38;;;;;;;6.35;3.00;;;22.90;43.10;;;;;;4919667;28;45868;-63
2022/04/14 12:46:23;;;;;;;6.47;3.70;;;23.00;43.00;;;;;;4884976;28;45548;-63
2022/04/14 12:48:58;;;;;;;5.72;3.45;;;23.00;42.70;;;;;;4913610;28;45525;-62
2022/04/14 12:51:31;;;;;;;5.10;3.70;;;23.00;42.80;;;;;;4916635;28;46516;-62
2022/04/14 12:53:57;;;;;;;6.13;3.78;;;23.00;42.90;;;;;;4920606;28;46229;-60
2022/04/14 12:56:23;;;;;;;5.65;3.85;;;23.00;43.00;;;;;;4922045;28;44599;-59
2022/04/14 12:59:14;;;;;;;6.72;3.55;;;23.10;42.90;;;;;;4923184;28;45192;-62
2022/04/14 13:02:04;;;;;;;8.02;4.00;;;23.10;42.50;;;;;;4888874;28;45312;-62
2022/04/14 13:04:31;;;;;;;6.75;3.75;;;23.10;42.30;;;;;;4912493;28;46017;-60
2022/04/14 13:06:57;;;;;;;5.63;3.75;;;23.10;42.60;;;;;;4916861;28;45282;-61
2022/04/14 13:09:23;;;;;;;6.57;3.67;;;23.10;42.50;;;;;;4917593;28;45424;-61
2022/04/14 13:11:49;;;;;;;6.30;4.20;;;23.10;42.50;;;;;;4911847;28;45208;-60
2022/04/14 13:14:44;;;;;;;9.15;3.95;;;23.10;42.40;;;;;;4918552;28;46156;-61
2022/04/14 13:17:09;;;;;;;5.32;3.33;;;23.20;41.90;;;;;;4924267;28;45327;-62
2022/04/14 13:19:35;;;;;;;5.53;3.58;;;23.20;42.40;;;;;;4888333;28;45265;-63
2022/04/14 13:22:01;;;;;;;6.38;4.13;;;23.20;42.30;;;;;;4917349;28;45317;-61
2022/04/14 13:24:28;;;;;;;6.05;3.88;;;23.30;42.40;;;;;;4910409;28;46248;-62
2022/04/14 13:26:54;;;;;;;5.50;3.63;;;23.30;42.30;;;;;;4914004;28;45257;-60
2022/04/14 13:29:21;;;;;;;7.43;4.20;;;23.30;43.00;;;;;;4914771;28;45494;-62
2022/04/14 13:31:47;;;;;;;8.18;3.85;;;23.30;42.40;;;;;;4914678;28;46262;-62
2022/04/14 13:34:12;;;;;;;6.93;4.45;;;23.30;42.40;;;;;;4913320;28;46295;-63
2022/04/14 13:36:38;;;;;;;6.15;3.75;;;23.30;42.40;;;;;;4914036;28;44682;-62
2022/04/14 13:39:04;;;;;;;5.30;3.72;;;23.30;42.30;;;;;;4923515;28;44826;-61
2022/04/14 13:41:30;;;;;;;7.47;3.88;;;23.30;42.90;;;;;;4916830;28;45342;-60
2022/04/14 13:43:56;;;;;;;5.68;3.90;;;23.30;42.20;;;;;;4917495;28;45454;-62
2022/04/14 13:46:23;;;;;;;5.13;3.72;;;23.40;42.20;;;;;;4911506;28;45068;-64
2022/04/14 13:48:49;;;;;;;5.07;3.80;;;23.40;42.10;;;;;;4919237;28;45481;-63
2022/04/14 13:51:14;;;;;;;6.10;3.80;;;23.40;42.20;;;;;;4913953;28;45161;-61
2022/04/14 13:53:40;;;;;;;4.80;3.30;;;23.40;42.60;;;;;;4914693;28;45733;-61
2022/04/14 13:56:06;;;;;;;10.82;3.75;;;23.40;42.00;;;;;;4912662;28;45217;-60
2022/04/14 13:58:35;;;;;;;6.60;3.53;;;23.40;42.00;;;;;;4915058;28;45653;-62
2022/04/14 14:01:02;;;;;;;5.80;3.08;;;23.40;41.90;;;;;;4919763;28;45817;-61
2022/04/14 14:03:29;;;;;;;7.57;3.92;;;23.40;42.00;;;;;;4932205;28;45283;-63
2022/04/14 14:05:59;;;;;;;6.38;3.72;;;23.40;42.00;;;;;;4932394;28;45136;-61
2022/04/14 14:08:26;;;;;;;5.25;3.67;;;23.40;42.00;;;;;;4927468;28;45379;-56
2022/04/14 14:10:52;;;;;;;5.53;3.50;;;23.40;42.10;;;;;;4913228;28;45383;-60
2022/04/14 14:13:18;;;;;;;7.68;3.58;;;23.40;42.10;;;;;;4928494;28;45794;-61
2022/04/14 14:15:44;;;;;;;6.65;3.40;;;23.40;42.10;;;;;;4936515;28;45056;-61
2022/04/14 14:18:10;;;;;;;11.57;3.78;;;23.40;42.20;;;;;;4932108;28;45423;-60
2022/04/14 14:20:36;;;;;;;3.35;2.88;;;23.30;42.30;;;;;;4915423;28;45140;-57
2022/04/14 14:23:02;;;;;;;3.90;3.10;;;23.30;42.40;;;;;;4935360;28;46285;-61
2022/04/14 14:25:27;;;;;;;4.90;3.40;;;23.30;42.50;;;;;;4934357;28;45193;-58
2022/04/14 14:27:53;;;;;;;6.63;3.88;;;23.20;42.50;;;;;;4936604;28;45254;-59
2022/04/14 14:30:19;;;;;;;5.47;3.47;;;23.20;42.60;;;;;;4928547;28;45228;-60
2022/04/14 14:32:44;;;;;;;7.90;3.38;;;23.20;42.70;;;;;;4915682;28;45369;-60
2022/04/14 14:35:14;;;;;;;4.28;2.95;;;23.20;42.70;;;;;;4933588;28;45103;-59
2022/04/14 14:37:41;;;;;;;5.85;3.03;;;23.10;42.70;;;;;;4930858;28;45176;-57
2022/04/14 14:40:07;;;;;;;3.63;2.75;;;23.10;42.90;;;;;;4921957;28;45944;-60
2022/04/14 14:42:33;;;;;;;4.82;2.80;;;23.10;42.90;;;;;;4930092;28;47097;-60
2022/04/14 14:44:59;;;;;;;2.97;2.50;;;23.10;43.00;;;;;;4926441;28;45858;-63
2022/04/14 14:47:24;;;;;;;5.57;2.85;;;23.10;43.10;;;;;;4933087;28;45378;-61
2022/04/14 14:49:50;;;;;;;3.30;2.83;;;23.10;43.10;;;;;;4913534;28;45427;-60
2022/04/14 14:52:16;;;;;;;4.18;3.15;;;23.10;43.20;;;;;;4929361;28;46319;-59
2022/04/14 14:54:41;;;;;;;4.05;2.65;;;23.00;43.20;;;;;;4929082;28;44707;-62
2022/04/14 14:57:07;;;;;;;3.92;3.05;;;23.00;43.20;;;;;;4916786;28;44718;-61
2022/04/14 14:59:33;;;;;;;6.07;2.75;;;23.00;43.30;;;;;;4928647;28;45243;-58
2022/04/14 15:01:58;;;;;;;4.07;2.95;;;23.00;43.30;;;;;;4928893;28;45970;-59
2022/04/14 15:04:24;;;;;;;4.50;2.90;;;23.00;43.40;;;;;;4913439;28;45375;-60
2022/04/14 15:06:50;;;;;;;5.45;3.17;;;23.00;43.50;;;;;;4914411;28;45358;-60
2022/04/14 15:09:16;;;;;;;5.07;2.90;;;22.90;43.40;;;;;;4926389;28;45132;-58
2022/04/14 15:11:41;;;;;;;4.22;2.70;;;23.00;43.50;;;;;;4927897;28;45672;-60
2022/04/14 15:14:10;;;;;;;3.85;2.95;;;22.90;43.50;;;;;;4929000;28;45180;-62
2022/04/14 15:16:36;;;;;;;2.70;2.40;;;22.90;43.60;;;;;;4932195;28;45429;-61
2022/04/14 15:19:02;;;;;;;4.15;2.47;;;22.90;43.70;;;;;;4913761;28;45428;-62
2022/04/14 15:21:30;;;;;;;4.93;2.70;;;22.90;43.70;;;;;;4930252;28;46109;-63
2022/04/14 15:23:56;;;;;;;5.30;2.80;;;22.90;43.70;;;;;;4917683;28;45321;-60
2022/04/14 15:26:22;;;;;;;2.53;2.20;;;22.90;43.80;;;;;;4932831;28;45297;-59
2022/04/14 15:28:49;;;;;;;2.95;2.63;;;22.90;43.80;;;;;;4933921;28;44956;-59
2022/04/14 15:31:15;;;;;;;4.13;2.47;;;22.80;43.80;;;;;;4928816;28;46865;-60
2022/04/14 15:33:41;;;;;;;5.75;2.70;;;22.80;43.90;;;;;;4913826;28;45787;-61
2022/04/14 15:36:07;;;;;;;6.88;2.55;;;22.80;44.00;;;;;;4931483;28;44816;-58
2022/04/14 15:38:34;;;;;;;3.35;2.47;;;22.80;43.90;;;;;;4930096;28;45295;-61
2022/04/14 15:41:01;;;;;;;3.30;2.50;;;22.80;44.00;;;;;;4929656;28;46003;-61
2022/04/14 15:43:27;;;;;;;4.25;2.50;;;22.80;44.10;;;;;;4913408;28;45228;-61
2022/04/14 15:45:52;;;;;;;2.90;2.50;;;22.80;44.10;;;;;;4932497;28;45166;-59
2022/04/14 15:48:18;;;;;;;2.35;2.05;;;22.70;44.10;;;;;;4928667;28;45581;-58